02:01
Airports
Links
Donate
Help keep this website running!
PayPal
Bitcoin
METAR
CYXE 180100Z 20018G23KT 6SM BLDU FU FEW040 BKN200 20/M06 A2910 RMK SC2CI3 SLP863 DENSITY ALT 3600FT
Current Weather Conditions at CYXE
VFR 01:00:00 18-10-17
Altimeter:29.10 hg
Temp:20.0°c 68°f
Dew point:-6.0°c 21°f
Wind:18 knots, 20.7 mph, 9 m/s, from 200°
Visibility:6.0 statute miles
20000(BKN) Broken
4000(FEW) A few
Past METAR reports
MVFR 00:09:00 18-10-17
Altimeter:29.12 hg
Temp:21.0°c 70°f
Dew point:-4.0°c 25°f
Wind:19 knots, 21.9 mph, 10 m/s, from 200°
Visibility:3.0 statute miles
30000(SCT) Scattered
3100(SCT) Scattered
CYXE 180009Z 20019G25KT 3SM BLDU SCT031 SCT300 21/M04 A2912 RMK SC3CI1 SLP872 DENSITY ALT 3700FT
IFR 00:00:00 18-10-17
Altimeter:29.13 hg
Temp:21.0°c 70°f
Dew point:-3.0°c 27°f
Wind:15 knots, 17.3 mph, 8 m/s, from 200°
Visibility:2.0 statute miles
30000(SCT) Scattered
4100(FEW) A few
CYXE 180000Z 20015G22KT 2SM BLDU FEW041 SCT300 21/M03 A2913 RMK BLDU1SC1CI1 SLP873 DENSITY ALT 3700FT
IFR 23:33:00 17-10-17
Altimeter:29.14 hg
Temp:21.0°c 70°f
Dew point:0.0°c 32°f
Wind:17 knots, 19.6 mph, 9 m/s, from 210°
Visibility:2.0 statute miles
30000(SCT) Scattered
4500(FEW) A few
CYXE 172333Z 21017G22KT 2SM BLDU FEW045 SCT300 21/00 A2914 RMK BLDU1SC1CI2 SLP879 DENSITY ALT 3600FT
MVFR 23:00:00 17-10-17
Altimeter:29.17 hg
Temp:21.0°c 70°f
Dew point:1.0°c 34°f
Wind:15 knots, 17.3 mph, 8 m/s, from 190°
Visibility:3.0 statute miles
30000(FEW) A few
CYXE 172300Z 19015G21KT 3SM BLDU FEW300 21/01 A2917 RMK CI2 SLP887 DENSITY ALT 3700FT
VFR 22:00:00 17-10-17
Altimeter:29.23 hg
Temp:22.0°c 72°f
Dew point:1.0°c 34°f
Wind:23 knots, 26.5 mph, 12 m/s, from 210°
Visibility:15.0 statute miles
30000(FEW) A few
CYXE 172200Z 21023KT 15SM FEW300 22/01 A2923 RMK CI2 PRESFR SLP906 DENSITY ALT 3700FT
VFR 21:00:00 17-10-17
Altimeter:29.29 hg
Temp:23.0°c 73°f
Dew point:2.0°c 36°f
Wind:18 knots, 20.7 mph, 9 m/s, from 200°
Visibility:15.0 statute miles
30000(FEW) A few
CYXE 172100Z 20018G25KT 15SM FEW300 23/02 A2929 RMK CI2 SLP927 DENSITY ALT 3700FT
TAF
TAF CYXE 172338Z 1800/1824 20015G25KT P6SM FEW300 TEMPO 1800/1801 2SM BLDU FM180100 24025G40KT P6SM FEW100 BECMG 1802/1804 27030G45KT FM180400 27030G45KT P6SM BKN030 BKN060 TEMPO 1804/1807 28040G55KT 2SM -SHRA BLDU FM180700 28025G40KT P6SM FEW030 SCT080 RMK NXT FCST BY 180600Z
Forecast at CYXE
00:00 18-10-17 to 01:00 18-10-17
Wind:15 Knots from 200°
Visibility:6.21 statute miles
30000FEW A few
TEMPO 00:00 18-10-17 to 01:00 18-10-17
BLDU
Visibility:2.0 statute miles
FM 01:00 18-10-17 to 02:00 18-10-17
Wind:25 Knots from 240°
Visibility:6.21 statute miles
10000FEW A few
BECMG 02:00 18-10-17 to 04:00 18-10-17
Wind:30 Knots from 270°
Visibility:6.21 statute miles
10000FEW A few
TEMPO 04:00 18-10-17 to 07:00 18-10-17
-SHRA BLDU
Wind:40 Knots from 280°
Visibility:2.0 statute miles
FM 04:00 18-10-17 to 07:00 18-10-17
Wind:30 Knots from 270°
Visibility:6.21 statute miles
3000BKN Broken
6000BKN Broken
FM 07:00 18-10-17 to 00:00 19-10-17
Wind:25 Knots from 280°
Visibility:6.21 statute miles
3000FEW A few
8000SCT Scattered